LNAZA VNLK-VNLK
Flight info
| Callsign | LNAZA |
|---|---|
| Flight time | 0h 4m |
| Altitude | 10000 |
| Route | VFR |
| Aircraft | DA42/L-V/N |
Departure
| Time | 2025-07-31 16:34 |
|---|---|
| Airport | Tenzing-Hillary Airport (VNLK) |
Arrival
| Time | 2025-07-31 16:39 |
|---|---|
| Airport | Tenzing-Hillary Airport (VNLK) |
| Time | Latitude | Longitude | Altitude | Speed | Heading |
|---|---|---|---|---|---|
| 2025-07-31 16:11 | 27.68749 | 86.73201 | 9332 ft | 0 kts | 39° |
| 2025-07-31 16:14 | 27.68762 | 86.73175 | 9329 ft | 0 kts | 319° |
| 2025-07-31 16:15 | 27.68764 | 86.73173 | 9329 ft | 3 kts | 311° |
| 2025-07-31 16:16 | 27.68788 | 86.73157 | 9329 ft | 6 kts | 237° |
| 2025-07-31 16:16 | 27.68310 | 86.72247 | 9208 ft | 108 kts | 241° |
| 2025-07-31 16:17 | 27.68224 | 86.70617 | 9915 ft | 105 kts | 258° |
| 2025-07-31 16:17 | 27.67331 | 86.71240 | 10073 ft | 132 kts | 53° |
| 2025-07-31 16:18 | 27.68561 | 86.72717 | 9122 ft | 88 kts | 57° |
| 2025-07-31 16:18 | 27.68730 | 86.73165 | 9330 ft | 8 kts | 291° |
| 2025-07-31 16:19 | 27.68781 | 86.73145 | 9333 ft | 7 kts | 240° |
| 2025-07-31 16:20 | 27.68275 | 86.72172 | 9175 ft | 111 kts | 243° |
| 2025-07-31 16:20 | 27.68126 | 86.70625 | 9853 ft | 113 kts | 221° |
| 2025-07-31 16:21 | 27.68086 | 86.71616 | 9146 ft | 122 kts | 79° |
| 2025-07-31 16:21 | 27.68691 | 86.72972 | 9249 ft | 71 kts | 57° |
| 2025-07-31 16:21 | 27.68867 | 86.73236 | 9387 ft | 0 kts | 11° |
| 2025-07-31 16:22 | 27.69013 | 86.73091 | 9365 ft | 46 kts | 301° |
| 2025-07-31 16:23 | 27.68342 | 86.71257 | 9600 ft | 90 kts | 257° |
| 2025-07-31 16:24 | 27.68413 | 86.72060 | 9128 ft | 101 kts | 86° |
| 2025-07-31 16:24 | 27.68872 | 86.73242 | 9434 ft | 63 kts | 14° |
| 2025-07-31 16:25 | 27.69089 | 86.72758 | 9254 ft | 81 kts | 289° |
| 2025-07-31 16:25 | 27.69098 | 86.72020 | 9233 ft | 99 kts | 257° |
| 2025-07-31 16:25 | 27.68201 | 86.71073 | 9222 ft | 117 kts | 148° |
| 2025-07-31 16:26 | 27.68551 | 86.72703 | 9123 ft | 104 kts | 57° |
| 2025-07-31 16:26 | 27.69292 | 86.72593 | 9418 ft | 103 kts | 269° |
| 2025-07-31 16:27 | 27.68572 | 86.72414 | 8943 ft | 44 kts | 273° |
| 2025-07-31 16:28 | 27.68846 | 86.71237 | 8917 ft | 85 kts | 225° |
| 2025-07-31 16:28 | 27.68029 | 86.71721 | 9140 ft | 103 kts | 74° |
| 2025-07-31 16:28 | 27.68402 | 86.72412 | 9138 ft | 100 kts | 60° |
| 2025-07-31 16:29 | 27.68854 | 86.73213 | 9376 ft | 0 kts | 211° |
| 2025-07-31 16:29 | 27.68749 | 86.73201 | 9403 ft | 0 kts | 39° |
| 2025-07-31 16:30 | 27.68755 | 86.73194 | 9334 ft | 9 kts | 297° |
| 2025-07-31 16:31 | 27.68689 | 86.72963 | 9244 ft | 68 kts | 238° |
| 2025-07-31 16:32 | 27.67196 | 86.70617 | 9551 ft | 76 kts | 224° |
| 2025-07-31 16:32 | 27.66865 | 86.70029 | 8792 ft | 153 kts | 17° |
| 2025-07-31 16:32 | 27.66914 | 86.70505 | 9434 ft | 99 kts | 225° |
| 2025-07-31 16:33 | 27.67029 | 86.69195 | 9920 ft | 73 kts | 256° |
| 2025-07-31 16:33 | 27.66025 | 86.68915 | 10252 ft | 93 kts | 166° |
| 2025-07-31 16:34 | 27.64909 | 86.68535 | 10757 ft | 98 kts | 248° |
| 2025-07-31 16:34 | 27.65007 | 86.67244 | 11377 ft | 79 kts | 310° |
| 2025-07-31 16:35 | 27.65765 | 86.65776 | 11848 ft | 81 kts | 268° |
| 2025-07-31 16:36 | 27.65491 | 86.64595 | 12255 ft | 78 kts | 216° |
| 2025-07-31 16:36 | 27.64201 | 86.63985 | 12688 ft | 120 kts | 210° |
| 2025-07-31 16:36 | 27.63537 | 86.63628 | 13202 ft | 73 kts | 269° |
| 2025-07-31 16:37 | 27.63487 | 86.65270 | 10423 ft | 0 kts | 290° |
| 2025-07-31 16:38 | 27.63388 | 86.65376 | 10300 ft | 14 kts | 302° |
| 2025-07-31 16:38 | 27.63361 | 86.65486 | 10179 ft | 1 kts | 270° |
| 2025-07-31 16:40 | 27.63414 | 86.65529 | 10336 ft | 77 kts | 287° |
| 2025-07-31 16:40 | 27.63372 | 86.65576 | 10133 ft | 0 kts | 53° |
| 2025-07-31 16:40 | 27.63220 | 86.65716 | 9944 ft | 35 kts | 219° |
| 2025-07-31 16:41 | 27.63221 | 86.65905 | 9798 ft | 38 kts | 138° |
| 2025-07-31 16:41 | 27.62989 | 86.66156 | 9566 ft | 29 kts | 86° |
| 2025-07-31 16:42 | 27.62962 | 86.66644 | 9271 ft | 37 kts | 32° |
| 2025-07-31 16:42 | 27.63038 | 86.66932 | 9029 ft | 76 kts | 70° |
| 2025-07-31 16:43 | 27.63491 | 86.67727 | 8466 ft | 47 kts | 50° |
| 2025-07-31 16:44 | 27.63790 | 86.67897 | 8060 ft | 55 kts | 82° |
| 2025-07-31 16:44 | 27.64005 | 86.68523 | 7788 ft | 70 kts | 75° |
| 2025-07-31 16:44 | 27.63749 | 86.68825 | 7180 ft | 1 kts | 222° |